createdAt,value
2019-03-19T00:00:55.954Z,2.77
2019-03-19T00:03:25.487Z,2.00
2019-03-19T00:05:55.027Z,2.30
2019-03-19T00:08:24.637Z,2.20
2019-03-19T00:10:54.450Z,2.40
2019-03-19T00:13:24.068Z,2.13
2019-03-19T00:15:53.822Z,2.03
2019-03-19T00:18:23.309Z,2.73
2019-03-19T00:20:52.760Z,2.13
2019-03-19T00:23:22.264Z,1.77
2019-03-19T00:25:53.173Z,2.07
2019-03-19T00:28:22.971Z,1.87
2019-03-19T00:30:52.641Z,1.97
2019-03-19T00:33:22.278Z,2.20
2019-03-19T00:35:51.774Z,2.33
2019-03-19T00:38:21.613Z,2.10
2019-03-19T00:40:51.230Z,2.27
2019-03-19T00:43:20.876Z,1.77
2019-03-19T00:45:50.514Z,1.67
2019-03-19T00:48:20.096Z,1.90
2019-03-19T00:50:49.760Z,2.00
2019-03-19T00:53:19.372Z,2.97
2019-03-19T00:55:48.885Z,1.63
2019-03-19T00:58:18.543Z,2.20
2019-03-19T01:00:48.153Z,1.80
2019-03-19T01:03:17.967Z,2.20
2019-03-19T01:05:47.515Z,1.87
2019-03-19T01:08:17.193Z,2.17
2019-03-19T01:10:46.874Z,2.10
2019-03-19T01:13:16.389Z,1.60
2019-03-19T01:15:46.063Z,1.73
2019-03-19T01:18:15.748Z,1.97
2019-03-19T01:20:45.483Z,2.10
2019-03-19T01:23:15.225Z,1.70
2019-03-19T01:25:55.340Z,2.83
2019-03-19T01:28:16.559Z,1.90
2019-03-19T01:30:46.239Z,2.83
2019-03-19T01:33:15.994Z,1.67
2019-03-19T01:35:45.715Z,5.67
2019-03-19T01:38:15.432Z,1.93
2019-03-19T01:40:45.229Z,1.80
2019-03-19T01:43:14.765Z,2.87
2019-03-19T01:45:44.519Z,1.73
2019-03-19T01:48:14.188Z,1.87
2019-03-19T01:50:43.880Z,1.73
2019-03-19T01:53:13.433Z,1.40
2019-03-19T01:55:42.986Z,1.90
2019-03-19T01:58:12.685Z,2.00
2019-03-19T02:00:42.187Z,2.60
2019-03-19T02:03:12.170Z,1.80
2019-03-19T02:05:41.994Z,1.77
2019-03-19T02:08:11.663Z,2.23
2019-03-19T02:10:41.472Z,2.10
2019-03-19T02:13:11.184Z,2.07
2019-03-19T02:15:40.756Z,1.93
2019-03-19T02:18:10.402Z,1.63
2019-03-19T02:20:40.597Z,1.80
2019-03-19T02:23:10.400Z,1.93
2019-03-19T02:25:39.996Z,2.10
2019-03-19T02:28:09.752Z,1.67
2019-03-19T02:30:39.453Z,2.43
2019-03-19T02:33:09.055Z,2.00
2019-03-19T02:35:38.941Z,2.33
2019-03-19T02:38:08.682Z,2.33
2019-03-19T02:40:38.424Z,1.70
2019-03-19T02:43:08.201Z,2.10
2019-03-19T02:45:37.913Z,2.23
2019-03-19T02:48:07.668Z,2.30
2019-03-19T02:50:37.703Z,1.90
2019-03-19T02:53:07.637Z,3.20
2019-03-19T02:55:37.372Z,2.07
2019-03-19T02:58:07.988Z,2.10
2019-03-19T03:00:38.786Z,2.10
2019-03-19T03:03:08.627Z,2.30
2019-03-19T03:05:38.401Z,1.90
2019-03-19T03:08:08.093Z,2.03
2019-03-19T03:10:37.816Z,1.80
2019-03-19T03:13:07.789Z,3.63
2019-03-19T03:15:37.744Z,2.73
2019-03-19T03:18:07.885Z,2.10
2019-03-19T03:20:38.005Z,2.33
2019-03-19T03:23:08.005Z,2.60
2019-03-19T03:25:38.363Z,2.33
2019-03-19T03:28:08.646Z,2.50
2019-03-19T03:30:38.969Z,2.20
2019-03-19T03:33:09.563Z,2.20
2019-03-19T03:35:40.274Z,2.40
2019-03-19T03:38:12.697Z,2.43
2019-03-19T03:40:43.695Z,2.20
2019-03-19T03:43:13.979Z,2.47
2019-03-19T03:45:44.655Z,1.97
2019-03-19T03:48:15.255Z,1.80
2019-03-19T03:50:45.640Z,2.67
2019-03-19T03:53:15.925Z,2.50
2019-03-19T03:55:46.206Z,2.03
2019-03-19T03:58:16.900Z,2.13
2019-03-19T04:00:47.968Z,2.37
2019-03-19T04:03:18.123Z,2.03
2019-03-19T04:05:48.721Z,3.00
2019-03-19T04:08:19.062Z,2.70
2019-03-19T04:10:49.321Z,2.30
2019-03-19T04:13:19.433Z,2.20
2019-03-19T04:15:49.499Z,2.13
2019-03-19T04:18:19.494Z,1.87
2019-03-19T04:20:49.577Z,2.23
2019-03-19T04:23:19.900Z,2.20
2019-03-19T04:25:49.836Z,2.80
2019-03-19T04:28:19.893Z,2.30
2019-03-19T04:30:49.879Z,2.53
2019-03-19T04:33:19.927Z,1.87
2019-03-19T04:35:49.914Z,2.60
2019-03-19T04:38:19.859Z,2.03
2019-03-19T04:40:49.815Z,3.13
2019-03-19T04:43:19.673Z,1.93
2019-03-19T04:45:49.426Z,2.50
2019-03-19T04:48:19.150Z,1.63
2019-03-19T04:50:48.967Z,3.80
2019-03-19T04:53:18.708Z,2.17
2019-03-19T04:55:48.402Z,2.10
2019-03-19T04:58:19.037Z,2.50
2019-03-19T05:01:48.850Z,1.87
2019-03-19T05:04:21.822Z,1.90
2019-03-19T05:06:54.340Z,2.03
2019-03-19T05:09:47.451Z,2.00
2019-03-19T05:12:18.052Z,2.87
2019-03-19T05:14:58.910Z,1.63
2019-03-19T05:17:28.466Z,1.67
2019-03-19T05:19:57.945Z,2.30
2019-03-19T05:22:29.722Z,1.97
2019-03-19T05:24:59.238Z,2.20
2019-03-19T05:27:37.012Z,2.10
2019-03-19T05:29:59.884Z,1.80
2019-03-19T05:32:29.876Z,1.73
2019-03-19T05:34:59.283Z,2.47
2019-03-19T05:37:28.690Z,2.37
2019-03-19T05:39:58.063Z,2.20
2019-03-19T05:42:27.966Z,2.03
2019-03-19T05:44:57.310Z,1.80
2019-03-19T05:47:36.821Z,2.47
2019-03-19T05:49:58.948Z,3.17
2019-03-19T05:52:28.400Z,2.47
2019-03-19T05:54:57.741Z,2.57
2019-03-19T05:57:27.072Z,2.53
2019-03-19T05:59:56.419Z,4.07
2019-03-19T06:02:25.794Z,2.10
2019-03-19T06:04:55.222Z,3.13
2019-03-19T06:07:24.572Z,2.10
2019-03-19T06:09:53.983Z,4.07
2019-03-19T06:12:23.879Z,3.90
2019-03-19T06:14:53.344Z,3.17
2019-03-19T06:17:22.891Z,3.23
2019-03-19T06:19:52.349Z,3.57
2019-03-19T06:22:22.235Z,3.37
2019-03-19T06:24:54.285Z,2.43
2019-03-19T06:27:23.581Z,3.07
2019-03-19T06:29:52.904Z,3.43
2019-03-19T06:32:22.220Z,2.70
2019-03-19T06:34:51.577Z,3.00
2019-03-19T06:37:20.952Z,3.50
2019-03-19T06:39:50.849Z,2.93
2019-03-19T06:42:20.425Z,2.93
2019-03-19T06:44:49.770Z,2.80
2019-03-19T06:47:19.083Z,3.43
2019-03-19T06:49:48.444Z,3.30
2019-03-19T06:52:22.248Z,3.77
2019-03-19T06:54:51.635Z,3.40
2019-03-19T06:57:20.947Z,3.20
2019-03-19T06:59:50.280Z,2.70
2019-03-19T07:02:19.632Z,2.73
2019-03-19T07:04:48.960Z,3.47
2019-03-19T07:07:18.274Z,2.80
2019-03-19T07:09:47.582Z,3.07
2019-03-19T07:12:16.927Z,2.50
2019-03-19T07:14:46.249Z,3.80
2019-03-19T07:17:15.578Z,4.83
2019-03-19T07:19:44.888Z,3.60
2019-03-19T07:22:14.221Z,3.83
2019-03-19T07:24:43.524Z,3.67
2019-03-19T07:27:12.853Z,3.07
2019-03-19T07:29:42.334Z,2.97
2019-03-19T07:32:11.971Z,4.47
2019-03-19T07:34:41.490Z,4.17
2019-03-19T07:37:11.013Z,3.23
2019-03-19T07:39:40.457Z,3.20
2019-03-19T07:42:09.842Z,3.43
2019-03-19T07:44:39.226Z,3.40
2019-03-19T07:47:08.668Z,2.90
2019-03-19T07:49:38.096Z,3.67
2019-03-19T07:52:07.666Z,3.37
2019-03-19T07:54:37.229Z,3.43
2019-03-19T07:57:06.760Z,3.27
2019-03-19T07:59:36.299Z,3.03
2019-03-19T08:02:05.785Z,3.83
2019-03-19T08:04:35.356Z,2.70
2019-03-19T08:07:04.939Z,3.40
2019-03-19T08:09:34.515Z,4.30
2019-03-19T08:12:04.088Z,2.87
2019-03-19T08:14:33.648Z,3.27
2019-03-19T08:17:03.177Z,3.30
2019-03-19T08:19:32.676Z,3.80
2019-03-19T08:22:02.194Z,3.27
2019-03-19T08:24:31.823Z,3.13
2019-03-19T08:27:01.376Z,4.30
2019-03-19T08:29:30.914Z,3.80
2019-03-19T08:32:00.403Z,3.17
2019-03-19T08:34:29.933Z,2.83
2019-03-19T08:36:59.452Z,3.57
2019-03-19T08:39:28.879Z,3.93
2019-03-19T08:41:58.417Z,3.93
2019-03-19T08:44:28.210Z,3.53
2019-03-19T08:46:57.885Z,2.97
2019-03-19T08:49:27.441Z,3.03
2019-03-19T08:51:57.014Z,2.83
2019-03-19T08:54:26.587Z,3.20
2019-03-19T08:56:56.055Z,2.90
2019-03-19T08:59:25.563Z,3.40
2019-03-19T09:01:55.151Z,3.37
2019-03-19T09:04:24.636Z,3.20
2019-03-19T09:06:54.075Z,2.67
2019-03-19T09:09:23.579Z,5.23
2019-03-19T09:11:53.076Z,2.83
2019-03-19T09:14:22.833Z,3.07
2019-03-19T09:16:52.389Z,2.80
2019-03-19T09:19:21.980Z,3.30
2019-03-19T09:21:51.520Z,3.00
2019-03-19T09:24:21.221Z,2.60
2019-03-19T09:26:50.619Z,2.63
2019-03-19T09:29:20.049Z,2.77
2019-03-19T09:31:49.408Z,2.77
2019-03-19T09:34:18.741Z,2.50
2019-03-19T09:36:57.033Z,2.20
2019-03-19T09:39:20.841Z,2.50
2019-03-19T09:41:50.194Z,2.90
2019-03-19T09:44:19.529Z,2.23
2019-03-19T09:46:48.881Z,3.30
2019-03-19T09:49:18.203Z,2.07
2019-03-19T09:51:47.555Z,2.10
2019-03-19T09:54:16.888Z,2.10
2019-03-19T09:56:46.233Z,2.50
2019-03-19T09:59:15.573Z,1.83
2019-03-19T10:01:44.967Z,1.50
2019-03-19T10:04:14.264Z,2.20
2019-03-19T10:06:43.637Z,2.53
2019-03-19T10:09:13.010Z,1.83
2019-03-19T10:11:42.349Z,1.60
2019-03-19T10:14:11.673Z,2.20
2019-03-19T10:16:41.008Z,1.80
2019-03-19T10:19:10.348Z,1.50
2019-03-19T10:21:39.643Z,1.40
2019-03-19T10:24:08.995Z,1.97
2019-03-19T10:26:38.316Z,1.40
2019-03-19T10:29:07.650Z,1.33
2019-03-19T10:31:36.996Z,1.50
2019-03-19T10:34:06.320Z,1.30
2019-03-19T10:36:35.650Z,3.03
2019-03-19T10:39:09.048Z,1.53
2019-03-19T10:41:38.672Z,2.20
2019-03-19T10:44:07.999Z,1.43
2019-03-19T10:46:37.307Z,1.27
2019-03-19T10:49:06.640Z,1.70
2019-03-19T10:51:36.005Z,1.30
2019-03-19T10:54:05.349Z,2.60
2019-03-19T10:56:34.688Z,1.93
2019-03-19T10:59:04.023Z,1.80
2019-03-19T11:01:33.364Z,1.70
2019-03-19T11:04:02.701Z,2.20
2019-03-19T11:06:32.029Z,1.83
2019-03-19T11:09:01.369Z,2.50
2019-03-19T11:11:30.691Z,1.83
2019-03-19T11:14:00.020Z,1.70
2019-03-19T11:16:29.366Z,1.67
2019-03-19T11:18:58.661Z,3.27
2019-03-19T11:21:27.989Z,1.77
2019-03-19T11:23:57.311Z,2.03
2019-03-19T11:26:26.637Z,1.90
2019-03-19T11:28:56.025Z,1.40
2019-03-19T11:31:25.393Z,1.90
2019-03-19T11:33:54.749Z,2.17
2019-03-19T11:36:24.106Z,1.70
2019-03-19T11:38:57.901Z,1.93
2019-03-19T11:41:27.240Z,2.10
2019-03-19T11:43:56.558Z,1.77
2019-03-19T11:46:25.917Z,1.97
2019-03-19T11:48:55.252Z,1.80
2019-03-19T11:51:24.635Z,1.57
2019-03-19T11:53:53.944Z,2.10
2019-03-19T11:56:23.289Z,1.73
2019-03-19T11:58:52.612Z,1.90
2019-03-19T12:01:21.964Z,1.77
2019-03-19T12:03:52.360Z,1.77
2019-03-19T12:06:22.738Z,1.93
2019-03-19T12:08:53.233Z,2.13
2019-03-19T12:11:22.591Z,1.53
2019-03-19T12:13:51.958Z,2.20
2019-03-19T12:16:21.547Z,1.90
2019-03-19T12:18:50.876Z,1.90
2019-03-19T12:21:20.220Z,2.20
2019-03-19T12:23:49.542Z,1.33
2019-03-19T12:26:18.892Z,1.70
2019-03-19T12:28:48.203Z,1.70
2019-03-19T12:31:17.565Z,2.57
2019-03-19T12:33:50.222Z,2.33
2019-03-19T12:36:19.579Z,2.73
2019-03-19T12:38:48.928Z,2.60
2019-03-19T12:41:18.308Z,1.57
2019-03-19T12:43:47.642Z,2.30
2019-03-19T12:46:17.013Z,2.77
2019-03-19T12:48:46.346Z,2.47
2019-03-19T12:51:15.662Z,2.27
2019-03-19T12:53:45.017Z,1.57
2019-03-19T12:56:14.321Z,2.30
2019-03-19T12:58:43.668Z,3.97
2019-03-19T13:01:13.059Z,2.80
2019-03-19T13:03:42.473Z,2.30
2019-03-19T13:06:11.884Z,2.70
2019-03-19T13:08:41.268Z,2.60
2019-03-19T13:11:10.622Z,2.70
2019-03-19T13:13:40.962Z,2.20
2019-03-19T13:16:10.481Z,2.10
2019-03-19T13:18:39.821Z,1.73
2019-03-19T13:21:09.180Z,1.60
2019-03-19T13:23:38.513Z,2.60
2019-03-19T13:26:07.843Z,2.00
2019-03-19T13:28:37.215Z,2.03
2019-03-19T13:31:06.532Z,1.53
2019-03-19T13:33:37.471Z,1.77
2019-03-19T13:36:07.716Z,1.70
2019-03-19T13:38:37.056Z,3.33
2019-03-19T13:41:06.384Z,1.70
2019-03-19T13:43:35.740Z,2.00
2019-03-19T13:46:05.095Z,2.50
2019-03-19T13:48:34.424Z,1.67
2019-03-19T13:51:03.780Z,2.10
2019-03-19T13:53:33.119Z,1.73
2019-03-19T13:56:02.467Z,1.87
2019-03-19T13:58:31.809Z,2.17
2019-03-19T14:01:01.153Z,1.80
2019-03-19T14:03:30.485Z,1.70
2019-03-19T14:05:59.833Z,2.40
2019-03-19T14:08:29.196Z,1.70
2019-03-19T14:10:58.521Z,1.77
2019-03-19T14:13:27.858Z,1.63
2019-03-19T14:15:57.224Z,1.50
2019-03-19T14:18:26.633Z,1.70
2019-03-19T14:20:55.980Z,2.03
2019-03-19T14:23:25.315Z,1.80
2019-03-19T14:25:54.668Z,1.10
2019-03-19T14:28:24.006Z,1.70
2019-03-19T14:30:53.349Z,1.57
2019-03-19T14:33:22.676Z,1.73
2019-03-19T14:35:52.012Z,1.83
2019-03-19T14:38:21.343Z,2.10
2019-03-19T14:40:50.687Z,1.93
2019-03-19T14:43:20.086Z,1.53
2019-03-19T14:45:49.425Z,1.80
2019-03-19T14:48:18.771Z,2.03
2019-03-19T14:50:48.090Z,1.53
2019-03-19T14:53:17.428Z,1.50
2019-03-19T14:55:46.805Z,2.03
2019-03-19T14:58:16.204Z,2.35
2019-03-19T15:00:45.555Z,2.27
2019-03-19T15:03:14.932Z,1.90
2019-03-19T15:05:51.170Z,2.00
2019-03-19T15:08:20.490Z,1.93
2019-03-19T15:10:49.813Z,2.10
2019-03-19T15:13:19.198Z,1.97
2019-03-19T15:15:48.632Z,2.37
2019-03-19T15:18:17.965Z,2.20
2019-03-19T15:20:47.322Z,1.93
2019-03-19T15:23:16.705Z,2.53
2019-03-19T15:25:46.620Z,3.90
2019-03-19T15:28:16.082Z,2.50
2019-03-19T15:30:45.472Z,1.87
2019-03-19T15:33:14.887Z,1.70
2019-03-19T15:35:44.366Z,1.97
2019-03-19T15:38:13.890Z,1.60
2019-03-19T15:40:43.449Z,2.17
2019-03-19T15:43:12.844Z,1.50
2019-03-19T15:45:42.298Z,2.00
2019-03-19T15:48:11.748Z,1.70
2019-03-19T15:50:41.081Z,1.60
2019-03-19T15:53:10.495Z,2.00
2019-03-19T15:55:39.866Z,1.93
2019-03-19T15:58:09.615Z,2.10
2019-03-19T16:00:39.553Z,1.67
2019-03-19T16:03:10.438Z,2.10
2019-03-19T16:05:39.829Z,2.20
2019-03-19T16:08:09.245Z,2.00
2019-03-19T16:10:38.651Z,2.10
2019-03-19T16:13:08.070Z,1.80
2019-03-19T16:15:37.429Z,3.00
2019-03-19T16:18:06.774Z,1.93
2019-03-19T16:20:36.196Z,2.30
2019-03-19T16:23:05.559Z,2.13
2019-03-19T16:25:34.958Z,3.37
2019-03-19T16:28:04.384Z,2.10
2019-03-19T16:30:33.808Z,2.17
2019-03-19T16:33:03.258Z,1.80
2019-03-19T16:35:32.692Z,2.20
2019-03-19T16:38:02.062Z,2.70
2019-03-19T16:40:31.470Z,3.07
2019-03-19T16:43:00.839Z,2.10
2019-03-19T16:45:30.276Z,2.07
2019-03-19T16:47:59.654Z,2.20
2019-03-19T16:50:29.021Z,2.20
2019-03-19T16:52:58.393Z,2.10
2019-03-19T16:55:27.785Z,1.90
2019-03-19T16:57:57.332Z,1.80
2019-03-19T17:00:26.759Z,2.80
2019-03-19T17:02:56.145Z,3.00
2019-03-19T17:05:25.646Z,2.40
2019-03-19T17:07:55.254Z,2.47
2019-03-19T17:10:24.759Z,2.23
2019-03-19T17:12:54.296Z,2.30
2019-03-19T17:15:23.709Z,1.80
2019-03-19T17:17:53.254Z,2.47
2019-03-19T17:20:22.739Z,2.50
2019-03-19T17:22:52.235Z,2.03
2019-03-19T17:25:21.707Z,2.40
2019-03-19T17:27:51.151Z,2.80
2019-03-19T17:30:22.520Z,2.67
2019-03-19T17:32:51.978Z,2.70
2019-03-19T17:35:21.611Z,3.20
2019-03-19T17:37:51.024Z,5.70
2019-03-19T17:40:20.392Z,5.97
2019-03-19T17:42:49.755Z,4.20
2019-03-19T17:45:19.178Z,3.50
2019-03-19T17:47:48.747Z,4.20
2019-03-19T17:50:19.110Z,3.77
2019-03-19T17:52:49.245Z,3.63
2019-03-19T17:55:18.782Z,3.60
2019-03-19T17:57:48.486Z,3.80
2019-03-19T18:00:21.903Z,4.50
2019-03-19T18:02:51.448Z,5.70
2019-03-19T18:05:20.998Z,4.40
2019-03-19T18:07:50.386Z,4.37
2019-03-19T18:10:19.858Z,4.90
2019-03-19T18:12:49.332Z,4.97
2019-03-19T18:15:19.043Z,4.40
2019-03-19T18:17:48.546Z,4.07
2019-03-19T18:20:18.074Z,5.00
2019-03-19T18:22:47.593Z,4.10
2019-03-19T18:25:23.273Z,3.93
2019-03-19T18:28:31.973Z,4.30
2019-03-19T18:32:00.120Z,3.70
2019-03-19T18:34:26.975Z,4.07
2019-03-19T18:36:56.774Z,3.93
2019-03-19T18:39:26.545Z,4.13
2019-03-19T18:41:56.337Z,4.50
2019-03-19T18:44:25.995Z,4.20
2019-03-19T18:46:55.770Z,4.23
2019-03-19T18:49:25.510Z,3.43
2019-03-19T18:51:55.299Z,3.63
2019-03-19T18:54:24.843Z,3.47
2019-03-19T18:56:54.860Z,6.10
2019-03-19T18:59:24.700Z,4.57
2019-03-19T19:01:54.546Z,4.00
2019-03-19T19:04:24.089Z,5.10
2019-03-19T19:06:53.720Z,3.60
2019-03-19T19:09:23.137Z,4.93
2019-03-19T19:11:52.868Z,5.00
2019-03-19T19:14:22.418Z,6.03
2019-03-19T19:16:52.086Z,5.13
2019-03-19T19:19:22.003Z,5.13
2019-03-19T19:21:51.662Z,5.50
2019-03-19T19:24:21.320Z,4.93
2019-03-19T19:26:50.781Z,5.33
2019-03-19T19:29:20.379Z,5.33
2019-03-19T19:31:50.054Z,5.57
2019-03-19T19:34:19.548Z,5.77
2019-03-19T19:36:49.250Z,4.87
2019-03-19T19:39:18.996Z,4.63
2019-03-19T19:41:48.783Z,5.10
2019-03-19T19:44:18.292Z,5.30
2019-03-19T19:46:47.819Z,3.87
2019-03-19T19:49:17.422Z,4.80
2019-03-19T19:51:47.101Z,4.73
2019-03-19T19:54:16.663Z,4.97
2019-03-19T19:56:46.151Z,4.27
2019-03-19T19:59:15.920Z,4.00
2019-03-19T20:01:45.790Z,4.20
2019-03-19T20:04:15.579Z,4.03
2019-03-19T20:06:46.600Z,4.70
2019-03-19T20:09:16.133Z,4.97
2019-03-19T20:11:45.891Z,5.27
2019-03-19T20:14:15.422Z,6.13
2019-03-19T20:16:45.129Z,7.23
2019-03-19T20:19:14.942Z,8.30
2019-03-19T20:21:44.489Z,8.70
2019-03-19T20:24:14.122Z,6.90
2019-03-19T20:26:43.766Z,5.83
2019-03-19T20:29:13.449Z,5.57
2019-03-19T20:31:42.983Z,5.20
2019-03-19T20:34:12.624Z,6.07
2019-03-19T20:36:42.205Z,7.10
2019-03-19T20:39:11.921Z,7.10
2019-03-19T20:41:41.872Z,6.83
2019-03-19T20:44:11.717Z,7.57
2019-03-19T20:46:41.231Z,7.00
2019-03-19T20:49:10.866Z,6.67
2019-03-19T20:51:40.520Z,6.70
2019-03-19T20:54:10.177Z,6.73
2019-03-19T20:56:39.804Z,6.37
2019-03-19T20:59:09.476Z,7.23
2019-03-19T21:01:39.007Z,6.13
2019-03-19T21:04:08.782Z,6.27
2019-03-19T21:06:38.385Z,8.30
2019-03-19T21:09:08.893Z,6.17
2019-03-19T21:11:38.594Z,7.03
2019-03-19T21:14:08.255Z,7.07
2019-03-19T21:16:38.015Z,5.80
2019-03-19T21:19:07.947Z,5.73
2019-03-19T21:21:37.700Z,6.73
2019-03-19T21:24:07.562Z,5.97
2019-03-19T21:26:37.628Z,6.73
2019-03-19T21:29:07.203Z,6.83
2019-03-19T21:31:36.691Z,7.23
2019-03-19T21:34:06.216Z,6.33
2019-03-19T21:36:35.735Z,6.63
2019-03-19T21:39:13.629Z,7.60
2019-03-19T21:41:43.159Z,6.60
2019-03-19T21:44:12.761Z,7.77
2019-03-19T21:46:42.361Z,7.97
2019-03-19T21:49:11.976Z,7.20
2019-03-19T21:51:41.536Z,7.17
2019-03-19T21:54:11.059Z,7.33
2019-03-19T21:56:40.498Z,7.40
2019-03-19T21:59:09.988Z,7.83
2019-03-19T22:01:39.469Z,7.93
2019-03-19T22:04:09.043Z,8.03
2019-03-19T22:06:38.547Z,8.27
2019-03-19T22:09:08.333Z,7.87
2019-03-19T22:11:37.759Z,8.03
2019-03-19T22:14:07.232Z,8.80
2019-03-19T22:16:36.636Z,7.93
2019-03-19T22:19:06.250Z,8.70
2019-03-19T22:21:36.124Z,8.83
2019-03-19T22:24:06.241Z,8.33
2019-03-19T22:26:36.354Z,9.30
2019-03-19T22:29:06.575Z,9.43
2019-03-19T22:31:36.690Z,9.77
2019-03-19T22:34:14.086Z,9.77
2019-03-19T22:36:39.131Z,9.37
2019-03-19T22:39:10.457Z,9.63
2019-03-19T22:41:40.516Z,9.03
2019-03-19T22:44:16.430Z,9.03
2019-03-19T22:46:46.669Z,9.97
2019-03-19T22:49:16.563Z,9.63
2019-03-19T22:51:46.794Z,9.80
2019-03-19T22:54:16.841Z,9.77
2019-03-19T22:56:47.101Z,8.20
2019-03-19T22:59:17.097Z,9.17
2019-03-19T23:01:47.218Z,8.77
2019-03-19T23:04:26.949Z,9.13
2019-03-19T23:06:48.965Z,8.10
2019-03-19T23:09:19.286Z,9.17
2019-03-19T23:11:49.373Z,9.63
2019-03-19T23:14:20.200Z,8.77
2019-03-19T23:17:01.473Z,8.47
